sensor_id;sensor_type;location;lat;lon;timestamp;P1;durP1;ratioP1;P2;durP2;ratioP2
53287;SDS011;39172;45.550;12.072;2023-07-08T00:02:33;4.05;;;3.00;;
53287;SDS011;39172;45.550;12.072;2023-07-08T00:08:34;4.20;;;2.50;;
53287;SDS011;39172;45.550;12.072;2023-07-08T00:14:35;2.50;;;2.25;;
53287;SDS011;39172;45.550;12.072;2023-07-08T00:20:40;3.53;;;2.85;;
53287;SDS011;39172;45.550;12.072;2023-07-08T00:26:41;3.60;;;2.95;;
53287;SDS011;39172;45.550;12.072;2023-07-08T00:32:42;3.00;;;2.42;;
53287;SDS011;39172;45.550;12.072;2023-07-08T00:38:43;3.88;;;2.80;;
53287;SDS011;39172;45.550;12.072;2023-07-08T00:44:45;4.38;;;2.85;;
53287;SDS011;39172;45.550;12.072;2023-07-08T00:50:47;3.35;;;2.70;;
53287;SDS011;39172;45.550;12.072;2023-07-08T00:56:49;4.65;;;3.10;;
53287;SDS011;39172;45.550;12.072;2023-07-08T01:02:54;4.13;;;2.90;;
53287;SDS011;39172;45.550;12.072;2023-07-08T01:08:55;3.60;;;3.08;;
53287;SDS011;39172;45.550;12.072;2023-07-08T01:14:56;4.15;;;3.30;;
53287;SDS011;39172;45.550;12.072;2023-07-08T01:21:00;3.80;;;3.20;;
53287;SDS011;39172;45.550;12.072;2023-07-08T01:27:02;3.42;;;2.97;;
53287;SDS011;39172;45.550;12.072;2023-07-08T01:33:07;2.95;;;2.30;;
53287;SDS011;39172;45.550;12.072;2023-07-08T01:39:13;2.47;;;2.10;;
53287;SDS011;39172;45.550;12.072;2023-07-08T01:45:16;2.40;;;1.90;;
53287;SDS011;39172;45.550;12.072;2023-07-08T01:51:17;3.00;;;2.50;;
53287;SDS011;39172;45.550;12.072;2023-07-08T01:57:18;3.72;;;2.70;;
53287;SDS011;39172;45.550;12.072;2023-07-08T02:03:20;3.70;;;2.88;;
53287;SDS011;39172;45.550;12.072;2023-07-08T02:09:22;3.50;;;2.70;;
53287;SDS011;39172;45.550;12.072;2023-07-08T02:15:25;4.22;;;3.22;;
53287;SDS011;39172;45.550;12.072;2023-07-08T02:21:25;3.75;;;2.92;;
53287;SDS011;39172;45.550;12.072;2023-07-08T02:27:26;4.70;;;3.35;;
53287;SDS011;39172;45.550;12.072;2023-07-08T02:33:27;4.30;;;3.53;;
53287;SDS011;39172;45.550;12.072;2023-07-08T02:39:33;4.47;;;3.72;;
53287;SDS011;39172;45.550;12.072;2023-07-08T02:45:34;5.68;;;4.07;;
53287;SDS011;39172;45.550;12.072;2023-07-08T02:51:35;5.30;;;4.20;;
53287;SDS011;39172;45.550;12.072;2023-07-08T02:57:36;4.15;;;3.58;;
53287;SDS011;39172;45.550;12.072;2023-07-08T03:03:37;5.10;;;3.70;;
53287;SDS011;39172;45.550;12.072;2023-07-08T03:09:38;4.47;;;3.42;;
53287;SDS011;39172;45.550;12.072;2023-07-08T03:15:40;3.60;;;3.05;;
53287;SDS011;39172;45.550;12.072;2023-07-08T03:21:41;3.38;;;2.55;;
53287;SDS011;39172;45.550;12.072;2023-07-08T03:27:43;3.20;;;2.42;;
53287;SDS011;39172;45.550;12.072;2023-07-08T03:33:45;2.60;;;2.22;;
53287;SDS011;39172;45.550;12.072;2023-07-08T03:39:46;2.20;;;1.90;;
53287;SDS011;39172;45.550;12.072;2023-07-08T03:45:47;2.97;;;2.45;;
53287;SDS011;39172;45.550;12.072;2023-07-08T03:51:51;3.00;;;2.50;;
53287;SDS011;39172;45.550;12.072;2023-07-08T03:57:54;3.45;;;2.40;;
53287;SDS011;39172;45.550;12.072;2023-07-08T04:03:56;3.88;;;3.35;;
53287;SDS011;39172;45.550;12.072;2023-07-08T04:09:57;5.03;;;3.63;;
53287;SDS011;39172;45.550;12.072;2023-07-08T04:16:00;3.95;;;3.30;;
53287;SDS011;39172;45.550;12.072;2023-07-08T04:22:02;4.53;;;3.70;;
53287;SDS011;39172;45.550;12.072;2023-07-08T04:28:03;5.22;;;3.90;;
53287;SDS011;39172;45.550;12.072;2023-07-08T04:34:04;5.53;;;3.75;;
53287;SDS011;39172;45.550;12.072;2023-07-08T04:40:10;4.25;;;3.17;;
53287;SDS011;39172;45.550;12.072;2023-07-08T04:46:17;4.03;;;3.30;;
53287;SDS011;39172;45.550;12.072;2023-07-08T04:52:19;5.25;;;3.50;;
53287;SDS011;39172;45.550;12.072;2023-07-08T04:58:20;4.45;;;3.10;;
53287;SDS011;39172;45.550;12.072;2023-07-08T05:04:21;4.28;;;3.30;;
53287;SDS011;39172;45.550;12.072;2023-07-08T05:10:22;3.95;;;2.72;;
53287;SDS011;39172;45.550;12.072;2023-07-08T05:16:23;4.38;;;3.13;;
53287;SDS011;39172;45.550;12.072;2023-07-08T05:22:24;3.92;;;3.45;;
53287;SDS011;39172;45.550;12.072;2023-07-08T05:28:26;3.45;;;3.15;;
53287;SDS011;39172;45.550;12.072;2023-07-08T05:34:27;4.97;;;3.28;;
53287;SDS011;39172;45.550;12.072;2023-07-08T05:40:28;4.30;;;3.20;;
53287;SDS011;39172;45.550;12.072;2023-07-08T05:46:29;4.97;;;3.63;;
53287;SDS011;39172;45.550;12.072;2023-07-08T05:52:30;5.20;;;3.50;;
53287;SDS011;39172;45.550;12.072;2023-07-08T05:58:31;4.38;;;3.50;;
53287;SDS011;39172;45.550;12.072;2023-07-08T06:04:32;4.15;;;3.00;;
53287;SDS011;39172;45.550;12.072;2023-07-08T06:10:33;4.40;;;2.90;;
53287;SDS011;39172;45.550;12.072;2023-07-08T06:16:34;4.32;;;3.10;;
53287;SDS011;39172;45.550;12.072;2023-07-08T06:22:35;5.13;;;3.00;;
53287;SDS011;39172;45.550;12.072;2023-07-08T06:28:36;3.38;;;2.90;;
53287;SDS011;39172;45.550;12.072;2023-07-08T06:34:37;3.47;;;2.70;;
53287;SDS011;39172;45.550;12.072;2023-07-08T06:40:38;3.90;;;2.80;;
53287;SDS011;39172;45.550;12.072;2023-07-08T06:46:39;4.35;;;3.13;;
53287;SDS011;39172;45.550;12.072;2023-07-08T06:52:40;5.10;;;3.60;;
53287;SDS011;39172;45.550;12.072;2023-07-08T06:58:41;4.95;;;3.58;;
53287;SDS011;39172;45.550;12.072;2023-07-08T07:04:42;4.57;;;3.35;;
53287;SDS011;39172;45.550;12.072;2023-07-08T07:10:43;5.32;;;3.90;;
53287;SDS011;39172;45.550;12.072;2023-07-08T07:16:44;4.63;;;3.95;;
53287;SDS011;39172;45.550;12.072;2023-07-08T07:22:45;4.30;;;3.50;;
53287;SDS011;39172;45.550;12.072;2023-07-08T07:28:45;4.63;;;3.85;;
53287;SDS011;39172;45.550;12.072;2023-07-08T07:34:46;5.05;;;3.92;;
53287;SDS011;39172;45.550;12.072;2023-07-08T07:40:51;4.85;;;3.85;;
53287;SDS011;39172;45.550;12.072;2023-07-08T07:46:53;5.57;;;4.35;;
53287;SDS011;39172;45.550;12.072;2023-07-08T07:52:54;4.45;;;3.78;;
53287;SDS011;39172;45.550;12.072;2023-07-08T07:58:55;5.35;;;3.90;;
53287;SDS011;39172;45.550;12.072;2023-07-08T08:04:56;6.00;;;4.30;;
53287;SDS011;39172;45.550;12.072;2023-07-08T08:10:57;5.57;;;4.20;;
53287;SDS011;39172;45.550;12.072;2023-07-08T08:16:59;4.30;;;3.55;;
53287;SDS011;39172;45.550;12.072;2023-07-08T08:23:00;6.78;;;4.18;;
53287;SDS011;39172;45.550;12.072;2023-07-08T08:29:01;5.55;;;4.10;;
53287;SDS011;39172;45.550;12.072;2023-07-08T08:35:03;6.18;;;3.88;;
53287;SDS011;39172;45.550;12.072;2023-07-08T08:41:08;5.20;;;4.28;;
53287;SDS011;39172;45.550;12.072;2023-07-08T08:47:19;5.03;;;3.80;;
53287;SDS011;39172;45.550;12.072;2023-07-08T08:53:23;4.28;;;3.70;;
53287;SDS011;39172;45.550;12.072;2023-07-08T09:05:34;4.07;;;3.60;;
53287;SDS011;39172;45.550;12.072;2023-07-08T09:11:38;4.70;;;4.00;;
53287;SDS011;39172;45.550;12.072;2023-07-08T09:17:39;4.63;;;4.13;;
53287;SDS011;39172;45.550;12.072;2023-07-08T09:23:40;4.57;;;3.75;;
53287;SDS011;39172;45.550;12.072;2023-07-08T09:29:42;5.15;;;3.72;;
53287;SDS011;39172;45.550;12.072;2023-07-08T09:35:45;5.47;;;4.10;;
53287;SDS011;39172;45.550;12.072;2023-07-08T09:41:48;4.57;;;3.70;;
53287;SDS011;39172;45.550;12.072;2023-07-08T09:47:52;4.97;;;3.58;;
53287;SDS011;39172;45.550;12.072;2023-07-08T09:53:53;4.50;;;3.55;;
53287;SDS011;39172;45.550;12.072;2023-07-08T09:59:56;4.30;;;3.90;;
53287;SDS011;39172;45.550;12.072;2023-07-08T10:06:02;5.20;;;3.90;;
53287;SDS011;39172;45.550;12.072;2023-07-08T10:12:04;3.63;;;3.33;;
53287;SDS011;39172;45.550;12.072;2023-07-08T10:18:16;4.32;;;3.55;;
53287;SDS011;39172;45.550;12.072;2023-07-08T10:24:32;5.47;;;3.95;;
53287;SDS011;39172;45.550;12.072;2023-07-08T10:43:13;6.10;;;4.05;;
53287;SDS011;39172;45.550;12.072;2023-07-08T11:01:57;5.03;;;4.23;;
53287;SDS011;39172;45.550;12.072;2023-07-08T11:14:11;3.83;;;3.20;;
53287;SDS011;39172;45.550;12.072;2023-07-08T11:20:24;4.85;;;3.55;;
53287;SDS011;39172;45.550;12.072;2023-07-08T11:26:31;4.13;;;3.65;;
53287;SDS011;39172;45.550;12.072;2023-07-08T11:32:33;4.73;;;3.77;;
53287;SDS011;39172;45.550;12.072;2023-07-08T11:38:35;4.07;;;3.28;;
53287;SDS011;39172;45.550;12.072;2023-07-08T11:44:42;3.92;;;3.38;;
53287;SDS011;39172;45.550;12.072;2023-07-08T11:50:44;4.35;;;3.38;;
53287;SDS011;39172;45.550;12.072;2023-07-08T11:56:49;3.30;;;3.00;;
53287;SDS011;39172;45.550;12.072;2023-07-08T12:08:52;4.63;;;2.88;;
53287;SDS011;39172;45.550;12.072;2023-07-08T12:14:58;3.75;;;3.17;;
53287;SDS011;39172;45.550;12.072;2023-07-08T12:21:00;3.80;;;2.97;;
53287;SDS011;39172;45.550;12.072;2023-07-08T12:27:02;3.28;;;2.70;;
53287;SDS011;39172;45.550;12.072;2023-07-08T12:33:03;3.47;;;3.03;;
53287;SDS011;39172;45.550;12.072;2023-07-08T12:39:10;4.28;;;3.40;;
53287;SDS011;39172;45.550;12.072;2023-07-08T12:45:13;5.13;;;3.55;;
53287;SDS011;39172;45.550;12.072;2023-07-08T12:51:15;4.80;;;4.10;;
53287;SDS011;39172;45.550;12.072;2023-07-08T12:57:17;4.10;;;3.70;;
53287;SDS011;39172;45.550;12.072;2023-07-08T13:03:19;4.75;;;4.10;;
53287;SDS011;39172;45.550;12.072;2023-07-08T13:15:34;5.07;;;4.07;;
53287;SDS011;39172;45.550;12.072;2023-07-08T13:21:36;5.35;;;4.35;;
53287;SDS011;39172;45.550;12.072;2023-07-08T13:27:37;5.88;;;4.00;;
53287;SDS011;39172;45.550;12.072;2023-07-08T13:33:38;5.20;;;4.30;;
53287;SDS011;39172;45.550;12.072;2023-07-08T13:39:42;5.68;;;4.38;;
53287;SDS011;39172;45.550;12.072;2023-07-08T13:45:44;5.25;;;4.47;;
53287;SDS011;39172;45.550;12.072;2023-07-08T13:51:48;4.75;;;4.25;;
53287;SDS011;39172;45.550;12.072;2023-07-08T13:57:57;5.03;;;4.10;;
53287;SDS011;39172;45.550;12.072;2023-07-08T14:03:59;5.60;;;4.45;;
53287;SDS011;39172;45.550;12.072;2023-07-08T14:10:07;4.43;;;3.90;;
53287;SDS011;39172;45.550;12.072;2023-07-08T14:16:10;5.30;;;4.38;;
53287;SDS011;39172;45.550;12.072;2023-07-08T14:28:19;6.00;;;4.35;;
53287;SDS011;39172;45.550;12.072;2023-07-08T14:34:24;5.57;;;3.80;;
53287;SDS011;39172;45.550;12.072;2023-07-08T14:46:32;5.37;;;3.80;;
53287;SDS011;39172;45.550;12.072;2023-07-08T14:52:33;4.57;;;3.83;;
53287;SDS011;39172;45.550;12.072;2023-07-08T14:58:33;4.55;;;4.07;;
53287;SDS011;39172;45.550;12.072;2023-07-08T15:04:34;7.57;;;4.47;;
53287;SDS011;39172;45.550;12.072;2023-07-08T15:10:36;4.97;;;4.32;;
53287;SDS011;39172;45.550;12.072;2023-07-08T15:16:37;5.80;;;4.35;;
53287;SDS011;39172;45.550;12.072;2023-07-08T15:22:38;5.60;;;4.10;;
53287;SDS011;39172;45.550;12.072;2023-07-08T15:28:43;4.40;;;4.00;;
53287;SDS011;39172;45.550;12.072;2023-07-08T15:34:48;6.47;;;4.10;;
53287;SDS011;39172;45.550;12.072;2023-07-08T15:40:49;4.25;;;3.55;;
53287;SDS011;39172;45.550;12.072;2023-07-08T15:46:50;4.28;;;3.78;;
53287;SDS011;39172;45.550;12.072;2023-07-08T15:52:52;3.85;;;3.40;;
53287;SDS011;39172;45.550;12.072;2023-07-08T15:58:53;5.10;;;4.00;;
53287;SDS011;39172;45.550;12.072;2023-07-08T16:04:54;4.57;;;3.67;;
53287;SDS011;39172;45.550;12.072;2023-07-08T16:10:56;4.68;;;4.05;;
53287;SDS011;39172;45.550;12.072;2023-07-08T16:16:58;4.32;;;3.92;;
53287;SDS011;39172;45.550;12.072;2023-07-08T16:22:59;3.67;;;3.38;;
53287;SDS011;39172;45.550;12.072;2023-07-08T16:29:00;4.55;;;3.50;;
53287;SDS011;39172;45.550;12.072;2023-07-08T16:35:01;3.65;;;3.00;;
53287;SDS011;39172;45.550;12.072;2023-07-08T16:41:02;4.32;;;3.45;;
53287;SDS011;39172;45.550;12.072;2023-07-08T16:47:03;4.43;;;3.17;;
53287;SDS011;39172;45.550;12.072;2023-07-08T16:53:08;4.85;;;3.25;;
53287;SDS011;39172;45.550;12.072;2023-07-08T16:59:10;4.28;;;3.47;;
53287;SDS011;39172;45.550;12.072;2023-07-08T17:05:25;3.53;;;3.20;;
53287;SDS011;39172;45.550;12.072;2023-07-08T17:11:28;3.97;;;3.17;;
53287;SDS011;39172;45.550;12.072;2023-07-08T17:17:29;3.83;;;3.10;;
53287;SDS011;39172;45.550;12.072;2023-07-08T17:23:30;4.32;;;3.33;;
53287;SDS011;39172;45.550;12.072;2023-07-08T17:29:31;3.53;;;3.20;;
53287;SDS011;39172;45.550;12.072;2023-07-08T17:35:31;4.15;;;3.00;;
53287;SDS011;39172;45.550;12.072;2023-07-08T17:41:32;3.80;;;3.40;;
53287;SDS011;39172;45.550;12.072;2023-07-08T17:47:33;3.25;;;2.72;;
53287;SDS011;39172;45.550;12.072;2023-07-08T17:53:34;3.15;;;2.78;;
53287;SDS011;39172;45.550;12.072;2023-07-08T17:59:35;4.13;;;3.45;;
53287;SDS011;39172;45.550;12.072;2023-07-08T18:05:36;3.75;;;3.00;;
53287;SDS011;39172;45.550;12.072;2023-07-08T18:11:41;3.70;;;3.20;;
53287;SDS011;39172;45.550;12.072;2023-07-08T18:17:43;2.80;;;2.47;;
53287;SDS011;39172;45.550;12.072;2023-07-08T18:23:45;3.72;;;2.90;;
53287;SDS011;39172;45.550;12.072;2023-07-08T18:29:46;3.17;;;2.80;;
53287;SDS011;39172;45.550;12.072;2023-07-08T18:35:47;4.18;;;3.40;;
53287;SDS011;39172;45.550;12.072;2023-07-08T18:41:48;3.55;;;2.88;;
53287;SDS011;39172;45.550;12.072;2023-07-08T18:47:49;3.53;;;2.92;;
53287;SDS011;39172;45.550;12.072;2023-07-08T18:53:51;3.30;;;2.92;;
53287;SDS011;39172;45.550;12.072;2023-07-08T18:59:51;4.07;;;3.28;;
53287;SDS011;39172;45.550;12.072;2023-07-08T19:05:52;3.20;;;2.83;;
53287;SDS011;39172;45.550;12.072;2023-07-08T19:11:54;3.53;;;3.20;;
53287;SDS011;39172;45.550;12.072;2023-07-08T19:17:55;4.13;;;3.10;;
53287;SDS011;39172;45.550;12.072;2023-07-08T19:23:56;4.35;;;3.25;;
53287;SDS011;39172;45.550;12.072;2023-07-08T19:29:57;3.55;;;2.97;;
53287;SDS011;39172;45.550;12.072;2023-07-08T19:35:58;3.42;;;2.83;;
53287;SDS011;39172;45.550;12.072;2023-07-08T19:42:01;3.17;;;2.88;;
53287;SDS011;39172;45.550;12.072;2023-07-08T19:48:02;4.22;;;3.17;;
53287;SDS011;39172;45.550;12.072;2023-07-08T19:54:03;3.63;;;2.70;;
53287;SDS011;39172;45.550;12.072;2023-07-08T20:00:05;3.47;;;2.80;;
53287;SDS011;39172;45.550;12.072;2023-07-08T20:06:18;3.53;;;2.78;;
53287;SDS011;39172;45.550;12.072;2023-07-08T20:12:20;3.20;;;2.80;;
53287;SDS011;39172;45.550;12.072;2023-07-08T20:18:28;4.18;;;3.50;;
53287;SDS011;39172;45.550;12.072;2023-07-08T20:24:29;5.18;;;4.53;;
53287;SDS011;39172;45.550;12.072;2023-07-08T20:30:30;6.00;;;4.72;;
53287;SDS011;39172;45.550;12.072;2023-07-08T20:36:31;4.82;;;4.32;;
53287;SDS011;39172;45.550;12.072;2023-07-08T20:42:32;5.25;;;4.25;;
53287;SDS011;39172;45.550;12.072;2023-07-08T20:48:33;4.18;;;3.53;;
53287;SDS011;39172;45.550;12.072;2023-07-08T20:54:34;3.30;;;3.00;;
53287;SDS011;39172;45.550;12.072;2023-07-08T21:00:35;3.42;;;2.85;;
53287;SDS011;39172;45.550;12.072;2023-07-08T21:06:36;2.60;;;2.33;;
53287;SDS011;39172;45.550;12.072;2023-07-08T21:12:37;2.13;;;1.90;;
53287;SDS011;39172;45.550;12.072;2023-07-08T21:18:38;2.95;;;2.60;;
53287;SDS011;39172;45.550;12.072;2023-07-08T21:24:39;3.58;;;2.90;;
53287;SDS011;39172;45.550;12.072;2023-07-08T21:30:40;3.40;;;2.70;;
53287;SDS011;39172;45.550;12.072;2023-07-08T21:36:41;2.50;;;2.20;;
53287;SDS011;39172;45.550;12.072;2023-07-08T21:42:47;2.67;;;2.17;;
53287;SDS011;39172;45.550;12.072;2023-07-08T21:48:48;2.65;;;2.20;;
53287;SDS011;39172;45.550;12.072;2023-07-08T21:54:49;2.30;;;2.05;;
53287;SDS011;39172;45.550;12.072;2023-07-08T22:00:50;2.75;;;2.22;;
53287;SDS011;39172;45.550;12.072;2023-07-08T22:06:51;1.73;;;1.58;;
53287;SDS011;39172;45.550;12.072;2023-07-08T22:12:53;1.83;;;1.50;;
53287;SDS011;39172;45.550;12.072;2023-07-08T22:18:54;1.95;;;1.60;;
53287;SDS011;39172;45.550;12.072;2023-07-08T22:24:55;2.05;;;1.70;;
53287;SDS011;39172;45.550;12.072;2023-07-08T22:30:55;1.95;;;1.58;;
53287;SDS011;39172;45.550;12.072;2023-07-08T22:36:56;2.30;;;1.80;;
53287;SDS011;39172;45.550;12.072;2023-07-08T22:42:57;1.75;;;1.50;;
53287;SDS011;39172;45.550;12.072;2023-07-08T22:49:00;1.40;;;1.20;;
53287;SDS011;39172;45.550;12.072;2023-07-08T22:55:01;2.00;;;1.80;;
53287;SDS011;39172;45.550;12.072;2023-07-08T23:01:03;2.35;;;1.90;;
53287;SDS011;39172;45.550;12.072;2023-07-08T23:07:04;2.53;;;1.90;;
53287;SDS011;39172;45.550;12.072;2023-07-08T23:13:05;2.20;;;2.00;;
53287;SDS011;39172;45.550;12.072;2023-07-08T23:19:06;3.60;;;2.33;;
53287;SDS011;39172;45.550;12.072;2023-07-08T23:25:08;2.75;;;2.17;;
53287;SDS011;39172;45.550;12.072;2023-07-08T23:31:09;2.53;;;2.30;;
53287;SDS011;39172;45.550;12.072;2023-07-08T23:37:11;2.67;;;2.30;;
53287;SDS011;39172;45.550;12.072;2023-07-08T23:43:15;4.15;;;3.22;;
53287;SDS011;39172;45.550;12.072;2023-07-08T23:49:19;3.55;;;2.90;;
53287;SDS011;39172;45.550;12.072;2023-07-08T23:55:20;3.28;;;2.97;;
